sensor_id;sensor_type;location;lat;lon;timestamp;pressure;altitude;pressure_sealevel;temperature;humidity
14882;BME280;7533;51.278;12.588;2024-03-08T00:03:50;100676.88;;;24.28;57.64
14882;BME280;7533;51.278;12.588;2024-03-08T00:09:21;100677.47;;;24.20;57.73
14882;BME280;7533;51.278;12.588;2024-03-08T00:14:38;100676.09;;;24.15;57.86
14882;BME280;7533;51.278;12.588;2024-03-08T00:20:08;100673.94;;;24.07;58.26
14882;BME280;7533;51.278;12.588;2024-03-08T00:25:32;100673.31;;;24.04;58.39
14882;BME280;7533;51.278;12.588;2024-03-08T00:31:02;100666.66;;;23.96;58.56
14882;BME280;7533;51.278;12.588;2024-03-08T00:36:18;100667.06;;;23.90;58.66
14882;BME280;7533;51.278;12.588;2024-03-08T00:41:49;100662.97;;;23.85;58.87
14882;BME280;7533;51.278;12.588;2024-03-08T00:47:05;100667.75;;;23.81;59.01
14882;BME280;7533;51.278;12.588;2024-03-08T00:52:35;100659.34;;;23.73;59.34
14882;BME280;7533;51.278;12.588;2024-03-08T00:57:52;100656.00;;;23.69;59.36
14882;BME280;7533;51.278;12.588;2024-03-08T01:03:22;100652.53;;;23.67;59.70
14882;BME280;7533;51.278;12.588;2024-03-08T01:08:38;100638.59;;;23.61;59.87
14882;BME280;7533;51.278;12.588;2024-03-08T01:14:09;100646.06;;;23.57;59.89
14882;BME280;7533;51.278;12.588;2024-03-08T01:19:25;100638.28;;;23.53;59.91
14882;BME280;7533;51.278;12.588;2024-03-08T01:24:55;100634.19;;;23.47;59.98
14882;BME280;7533;51.278;12.588;2024-03-08T01:30:12;100629.25;;;23.41;60.14
14882;BME280;7533;51.278;12.588;2024-03-08T01:35:42;100629.56;;;23.36;60.24
14882;BME280;7533;51.278;12.588;2024-03-08T01:40:58;100613.69;;;23.32;60.38
14882;BME280;7533;51.278;12.588;2024-03-08T01:46:30;100609.47;;;23.28;60.27
14882;BME280;7533;51.278;12.588;2024-03-08T01:51:48;100587.13;;;23.26;60.35
14882;BME280;7533;51.278;12.588;2024-03-08T01:57:19;100590.78;;;23.25;60.43
14882;BME280;7533;51.278;12.588;2024-03-08T02:02:46;100593.81;;;23.20;60.49
14882;BME280;7533;51.278;12.588;2024-03-08T02:08:16;100594.16;;;23.15;60.55
14882;BME280;7533;51.278;12.588;2024-03-08T02:13:32;100577.28;;;23.12;60.68
14882;BME280;7533;51.278;12.588;2024-03-08T02:19:04;100571.16;;;23.10;60.73
14882;BME280;7533;51.278;12.588;2024-03-08T02:24:23;100576.78;;;23.07;60.95
14882;BME280;7533;51.278;12.588;2024-03-08T02:29:55;100577.09;;;23.02;61.03
14882;BME280;7533;51.278;12.588;2024-03-08T02:35:11;100574.59;;;22.99;61.03
14882;BME280;7533;51.278;12.588;2024-03-08T02:40:43;100568.66;;;22.94;61.17
14882;BME280;7533;51.278;12.588;2024-03-08T02:45:59;100573.31;;;22.92;61.40
14882;BME280;7533;51.278;12.588;2024-03-08T02:51:29;100569.88;;;22.90;61.47
14882;BME280;7533;51.278;12.588;2024-03-08T02:56:47;100570.94;;;22.87;61.63
14882;BME280;7533;51.278;12.588;2024-03-08T03:02:16;100568.44;;;22.84;61.65
14882;BME280;7533;51.278;12.588;2024-03-08T03:07:33;100570.25;;;22.84;61.63
14882;BME280;7533;51.278;12.588;2024-03-08T03:13:04;100565.97;;;22.81;61.69
14882;BME280;7533;51.278;12.588;2024-03-08T03:18:27;100558.94;;;22.79;61.87
14882;BME280;7533;51.278;12.588;2024-03-08T03:23:57;100553.75;;;22.76;61.89
14882;BME280;7533;51.278;12.588;2024-03-08T03:29:15;100551.19;;;22.74;62.01
14882;BME280;7533;51.278;12.588;2024-03-08T03:34:45;100551.38;;;22.71;62.24
14882;BME280;7533;51.278;12.588;2024-03-08T03:40:17;100544.38;;;22.68;62.01
14882;BME280;7533;51.278;12.588;2024-03-08T03:45:48;100547.94;;;22.69;62.23
14882;BME280;7533;51.278;12.588;2024-03-08T03:51:04;100544.56;;;22.65;62.37
14882;BME280;7533;51.278;12.588;2024-03-08T03:56:33;100542.00;;;22.64;62.33
14882;BME280;7533;51.278;12.588;2024-03-08T04:01:51;100534.97;;;22.61;62.31
14882;BME280;7533;51.278;12.588;2024-03-08T04:07:21;100536.91;;;22.59;62.38
14882;BME280;7533;51.278;12.588;2024-03-08T04:12:37;100531.63;;;22.58;62.43
14882;BME280;7533;51.278;12.588;2024-03-08T04:18:08;100532.69;;;22.55;62.46
14882;BME280;7533;51.278;12.588;2024-03-08T04:23:38;100535.41;;;22.55;62.61
14882;BME280;7533;51.278;12.588;2024-03-08T04:28:55;100536.38;;;22.54;62.43
14882;BME280;7533;51.278;12.588;2024-03-08T04:34:26;100527.53;;;22.52;62.53
14882;BME280;7533;51.278;12.588;2024-03-08T04:39:44;100527.53;;;22.52;62.47
14882;BME280;7533;51.278;12.588;2024-03-08T04:45:14;100522.13;;;22.52;62.52
14882;BME280;7533;51.278;12.588;2024-03-08T04:50:31;100515.97;;;22.50;62.21
14882;BME280;7533;51.278;12.588;2024-03-08T04:56:02;100519.75;;;22.48;62.30
14882;BME280;7533;51.278;12.588;2024-03-08T05:01:21;100518.03;;;22.47;62.16
14882;BME280;7533;51.278;12.588;2024-03-08T05:06:52;100516.41;;;22.44;62.18
14882;BME280;7533;51.278;12.588;2024-03-08T05:12:09;100514.69;;;22.43;62.13
14882;BME280;7533;51.278;12.588;2024-03-08T05:17:39;100506.59;;;22.43;62.00
14882;BME280;7533;51.278;12.588;2024-03-08T05:22:56;100506.81;;;22.40;61.94
14882;BME280;7533;51.278;12.588;2024-03-08T05:28:27;100505.06;;;22.39;61.90
14882;BME280;7533;51.278;12.588;2024-03-08T05:33:43;100505.19;;;22.37;61.94
14882;BME280;7533;51.278;12.588;2024-03-08T05:39:15;100498.94;;;22.37;61.91
14882;BME280;7533;51.278;12.588;2024-03-08T05:44:32;100498.28;;;22.33;61.93
14882;BME280;7533;51.278;12.588;2024-03-08T05:50:02;100496.53;;;22.32;61.72
14882;BME280;7533;51.278;12.588;2024-03-08T05:55:20;100489.53;;;22.30;61.78
14882;BME280;7533;51.278;12.588;2024-03-08T06:00:53;100497.75;;;22.28;61.87
14882;BME280;7533;51.278;12.588;2024-03-08T06:06:09;100496.84;;;22.28;61.89
14882;BME280;7533;51.278;12.588;2024-03-08T06:11:40;100496.13;;;22.26;61.75
14882;BME280;7533;51.278;12.588;2024-03-08T06:17:04;100501.38;;;22.27;61.75
14882;BME280;7533;51.278;12.588;2024-03-08T06:22:34;100497.63;;;22.30;61.54
14882;BME280;7533;51.278;12.588;2024-03-08T06:27:51;100495.81;;;22.30;61.74
14882;BME280;7533;51.278;12.588;2024-03-08T06:33:21;100494.81;;;22.31;61.71
14882;BME280;7533;51.278;12.588;2024-03-08T06:38:37;100493.09;;;22.30;61.39
14882;BME280;7533;51.278;12.588;2024-03-08T06:44:09;100494.09;;;22.29;61.49
14882;BME280;7533;51.278;12.588;2024-03-08T06:49:25;100494.16;;;22.28;61.48
14882;BME280;7533;51.278;12.588;2024-03-08T06:54:55;100500.75;;;22.24;61.61
14882;BME280;7533;51.278;12.588;2024-03-08T07:00:14;100482.09;;;22.21;61.74
14882;BME280;7533;51.278;12.588;2024-03-08T07:05:48;100477.56;;;22.21;61.53
14882;BME280;7533;51.278;12.588;2024-03-08T07:11:11;100480.25;;;22.21;61.69
14882;BME280;7533;51.278;12.588;2024-03-08T07:16:42;100490.28;;;22.19;61.67
14882;BME280;7533;51.278;12.588;2024-03-08T07:21:59;100491.34;;;22.16;61.54
14882;BME280;7533;51.278;12.588;2024-03-08T07:27:30;100489.53;;;22.17;61.73
14882;BME280;7533;51.278;12.588;2024-03-08T07:32:47;100478.84;;;22.15;61.80
14882;BME280;7533;51.278;12.588;2024-03-08T07:38:17;100469.91;;;22.15;61.68
14882;BME280;7533;51.278;12.588;2024-03-08T07:43:35;100469.91;;;22.15;61.69
14882;BME280;7533;51.278;12.588;2024-03-08T07:59:55;100454.31;;;20.71;46.47
14882;BME280;7533;51.278;12.588;2024-03-08T08:05:13;100461.00;;;19.61;43.76
14882;BME280;7533;51.278;12.588;2024-03-08T08:10:42;100453.56;;;20.10;41.17
14882;BME280;7533;51.278;12.588;2024-03-08T08:15:58;100449.75;;;21.00;45.77
14882;BME280;7533;51.278;12.588;2024-03-08T08:21:30;100438.91;;;21.28;47.84
14882;BME280;7533;51.278;12.588;2024-03-08T08:26:45;100436.97;;;21.45;49.12
14882;BME280;7533;51.278;12.588;2024-03-08T08:32:15;100434.28;;;21.57;50.19
14882;BME280;7533;51.278;12.588;2024-03-08T08:37:33;100436.81;;;21.73;51.08
14882;BME280;7533;51.278;12.588;2024-03-08T08:43:04;100427.22;;;21.82;51.89
14882;BME280;7533;51.278;12.588;2024-03-08T08:48:26;100419.50;;;21.90;52.76
14882;BME280;7533;51.278;12.588;2024-03-08T08:53:58;100417.13;;;21.98;53.17
14882;BME280;7533;51.278;12.588;2024-03-08T08:59:17;100413.13;;;22.04;53.39
14882;BME280;7533;51.278;12.588;2024-03-08T09:04:46;100411.97;;;22.08;54.10
14882;BME280;7533;51.278;12.588;2024-03-08T09:10:06;100413.50;;;22.12;54.45
14882;BME280;7533;51.278;12.588;2024-03-08T09:15:35;100400.78;;;22.14;54.76
14882;BME280;7533;51.278;12.588;2024-03-08T09:20:56;100391.41;;;22.20;54.84
14882;BME280;7533;51.278;12.588;2024-03-08T09:26:28;100390.22;;;22.24;55.06
14882;BME280;7533;51.278;12.588;2024-03-08T09:31:51;100377.34;;;22.27;55.27
14882;BME280;7533;51.278;12.588;2024-03-08T09:37:21;100378.22;;;22.28;55.32
14882;BME280;7533;51.278;12.588;2024-03-08T09:42:40;100381.69;;;22.30;55.53
14882;BME280;7533;51.278;12.588;2024-03-08T09:48:11;100378.03;;;22.31;55.86
14882;BME280;7533;51.278;12.588;2024-03-08T09:53:36;100363.69;;;22.30;55.89
14882;BME280;7533;51.278;12.588;2024-03-08T09:59:07;100361.72;;;22.32;56.18
14882;BME280;7533;51.278;12.588;2024-03-08T10:04:44;100359.44;;;22.39;56.18
14882;BME280;7533;51.278;12.588;2024-03-08T10:10:15;100343.78;;;22.44;56.32
14882;BME280;7533;51.278;12.588;2024-03-08T10:15:32;100346.72;;;22.41;56.02
14882;BME280;7533;51.278;12.588;2024-03-08T10:21:03;100337.78;;;22.40;53.89
14882;BME280;7533;51.278;12.588;2024-03-08T10:26:27;100315.75;;;21.32;43.94
14882;BME280;7533;51.278;12.588;2024-03-08T10:31:58;100313.53;;;21.11;41.84
14882;BME280;7533;51.278;12.588;2024-03-08T10:37:15;100304.69;;;21.75;45.14
14882;BME280;7533;51.278;12.588;2024-03-08T10:42:51;100306.31;;;21.90;46.63
14882;BME280;7533;51.278;12.588;2024-03-08T10:48:26;100296.09;;;21.95;47.85
14882;BME280;7533;51.278;12.588;2024-03-08T10:53:59;100291.97;;;22.02;49.26
14882;BME280;7533;51.278;12.588;2024-03-08T10:59:19;100295.06;;;22.09;50.26
14882;BME280;7533;51.278;12.588;2024-03-08T11:04:51;100291.84;;;22.16;51.60
14882;BME280;7533;51.278;12.588;2024-03-08T11:10:19;100292.06;;;22.26;52.53
14882;BME280;7533;51.278;12.588;2024-03-08T11:15:49;100276.59;;;22.41;52.92
14882;BME280;7533;51.278;12.588;2024-03-08T11:21:08;100277.34;;;22.43;53.48
14882;BME280;7533;51.278;12.588;2024-03-08T11:26:39;100264.91;;;22.53;54.12
14882;BME280;7533;51.278;12.588;2024-03-08T11:32:03;100253.44;;;22.62;54.25
14882;BME280;7533;51.278;12.588;2024-03-08T11:37:35;100254.53;;;22.60;54.67
14882;BME280;7533;51.278;12.588;2024-03-08T11:42:52;100239.44;;;22.57;55.44
14882;BME280;7533;51.278;12.588;2024-03-08T11:48:25;100238.97;;;22.63;55.89
14882;BME280;7533;51.278;12.588;2024-03-08T11:53:42;100224.78;;;22.73;56.51
14882;BME280;7533;51.278;12.588;2024-03-08T11:59:05;100211.06;;;22.76;57.30
14882;BME280;7533;51.278;12.588;2024-03-08T12:04:14;100211.78;;;22.78;57.76
14882;BME280;7533;51.278;12.588;2024-03-08T12:09:18;100205.31;;;22.80;57.81
14882;BME280;7533;51.278;12.588;2024-03-08T12:14:23;100196.25;;;22.81;57.70
14882;BME280;7533;51.278;12.588;2024-03-08T12:19:27;100184.34;;;22.84;57.95
14882;BME280;7533;51.278;12.588;2024-03-08T12:24:31;100179.72;;;22.86;57.88
14882;BME280;7533;51.278;12.588;2024-03-08T12:29:38;100175.72;;;22.91;57.92
14882;BME280;7533;51.278;12.588;2024-03-08T12:34:41;100176.56;;;22.92;58.07
14882;BME280;7533;51.278;12.588;2024-03-08T12:39:45;100154.84;;;22.93;57.79
14882;BME280;7533;51.278;12.588;2024-03-08T12:44:48;100152.16;;;22.93;58.50
14882;BME280;7533;51.278;12.588;2024-03-08T12:49:51;100140.28;;;22.96;58.42
14882;BME280;7533;51.278;12.588;2024-03-08T12:54:55;100136.13;;;23.14;58.11
14882;BME280;7533;51.278;12.588;2024-03-08T12:59:58;100127.19;;;23.36;57.42
14882;BME280;7533;51.278;12.588;2024-03-08T13:05:01;100124.72;;;23.56;57.11
14882;BME280;7533;51.278;12.588;2024-03-08T13:10:08;100117.72;;;23.75;56.43
14882;BME280;7533;51.278;12.588;2024-03-08T13:15:16;100110.09;;;23.81;56.40
14882;BME280;7533;51.278;12.588;2024-03-08T13:20:22;100104.25;;;23.64;56.93
14882;BME280;7533;51.278;12.588;2024-03-08T13:25:35;100095.13;;;23.54;57.01
14882;BME280;7533;51.278;12.588;2024-03-08T13:30:40;100086.53;;;23.49;57.10
14882;BME280;7533;51.278;12.588;2024-03-08T13:35:43;100072.16;;;23.48;56.97
14882;BME280;7533;51.278;12.588;2024-03-08T13:40:49;100066.91;;;23.47;57.03
14882;BME280;7533;51.278;12.588;2024-03-08T13:45:53;100066.41;;;23.42;57.01
14882;BME280;7533;51.278;12.588;2024-03-08T13:50:56;100049.59;;;23.38;57.35
14882;BME280;7533;51.278;12.588;2024-03-08T13:56:01;100053.75;;;23.42;57.36
14882;BME280;7533;51.278;12.588;2024-03-08T14:01:04;100038.19;;;23.46;57.15
14882;BME280;7533;51.278;12.588;2024-03-08T14:06:13;100017.13;;;23.61;56.75
14882;BME280;7533;51.278;12.588;2024-03-08T14:11:24;100018.19;;;23.92;56.14
14882;BME280;7533;51.278;12.588;2024-03-08T14:16:27;100013.16;;;23.87;56.10
14882;BME280;7533;51.278;12.588;2024-03-08T14:21:30;100005.69;;;23.80;56.75
14882;BME280;7533;51.278;12.588;2024-03-08T14:26:34;99998.31;;;23.82;56.98
14882;BME280;7533;51.278;12.588;2024-03-08T14:31:40;100008.84;;;23.85;57.14
14882;BME280;7533;51.278;12.588;2024-03-08T14:36:44;99990.81;;;23.85;57.02
14882;BME280;7533;51.278;12.588;2024-03-08T14:41:49;99985.28;;;23.87;56.93
14882;BME280;7533;51.278;12.588;2024-03-08T14:46:55;99983.56;;;23.86;56.99
14882;BME280;7533;51.278;12.588;2024-03-08T14:51:59;99973.47;;;23.88;56.84
14882;BME280;7533;51.278;12.588;2024-03-08T14:57:04;99986.47;;;23.94;57.31
14882;BME280;7533;51.278;12.588;2024-03-08T15:02:07;99969.88;;;24.19;56.63
14882;BME280;7533;51.278;12.588;2024-03-08T15:07:12;99962.50;;;24.42;56.06
14882;BME280;7533;51.278;12.588;2024-03-08T15:18:50;99956.66;;;24.68;55.70
14882;BME280;7533;51.278;12.588;2024-03-08T15:23:55;99947.03;;;24.85;54.72
14882;BME280;7533;51.278;12.588;2024-03-08T15:28:58;99944.53;;;24.93;54.75
14882;BME280;7533;51.278;12.588;2024-03-08T15:34:03;99936.84;;;24.98;54.96
14882;BME280;7533;51.278;12.588;2024-03-08T15:39:08;99919.31;;;25.02;54.42
14882;BME280;7533;51.278;12.588;2024-03-08T15:44:12;99920.38;;;25.11;54.61
14882;BME280;7533;51.278;12.588;2024-03-08T15:49:17;99915.66;;;25.13;54.37
14882;BME280;7533;51.278;12.588;2024-03-08T15:54:20;99903.41;;;25.18;54.35
14882;BME280;7533;51.278;12.588;2024-03-08T15:59:23;99900.44;;;25.21;54.36
14882;BME280;7533;51.278;12.588;2024-03-08T16:04:29;99905.84;;;25.21;54.59
14882;BME280;7533;51.278;12.588;2024-03-08T16:09:36;99901.16;;;25.23;54.18
14882;BME280;7533;51.278;12.588;2024-03-08T16:14:39;99889.19;;;25.26;54.08
14882;BME280;7533;51.278;12.588;2024-03-08T16:19:43;99904.59;;;25.25;53.93
14882;BME280;7533;51.278;12.588;2024-03-08T16:24:46;99891.72;;;25.18;53.71
14882;BME280;7533;51.278;12.588;2024-03-08T16:29:52;99894.16;;;25.11;53.53
14882;BME280;7533;51.278;12.588;2024-03-08T16:34:56;99887.38;;;24.96;52.99
14882;BME280;7533;51.278;12.588;2024-03-08T16:39:59;99890.94;;;24.96;52.88
14882;BME280;7533;51.278;12.588;2024-03-08T16:45:03;99895.72;;;24.73;53.25
14882;BME280;7533;51.278;12.588;2024-03-08T16:50:08;99898.59;;;24.82;52.83
14882;BME280;7533;51.278;12.588;2024-03-08T16:55:14;99879.22;;;24.76;52.58
14882;BME280;7533;51.278;12.588;2024-03-08T17:00:20;99880.47;;;24.72;52.71
14882;BME280;7533;51.278;12.588;2024-03-08T17:05:25;99888.28;;;24.66;53.23
14882;BME280;7533;51.278;12.588;2024-03-08T17:10:30;99891.53;;;24.60;53.60
14882;BME280;7533;51.278;12.588;2024-03-08T17:15:34;99887.38;;;24.56;55.73
14882;BME280;7533;51.278;12.588;2024-03-08T17:20:38;99884.09;;;24.52;57.16
14882;BME280;7533;51.278;12.588;2024-03-08T17:25:43;99884.38;;;24.49;57.17
14882;BME280;7533;51.278;12.588;2024-03-08T17:30:48;99881.06;;;24.45;57.33
14882;BME280;7533;51.278;12.588;2024-03-08T17:35:52;99888.72;;;24.40;57.16
14882;BME280;7533;51.278;12.588;2024-03-08T17:40:55;99891.09;;;24.34;57.09
14882;BME280;7533;51.278;12.588;2024-03-08T17:46:01;99882.53;;;24.28;57.18
14882;BME280;7533;51.278;12.588;2024-03-08T17:51:07;99884.75;;;24.23;57.46
14882;BME280;7533;51.278;12.588;2024-03-08T17:56:10;99876.78;;;24.22;57.38
14882;BME280;7533;51.278;12.588;2024-03-08T18:01:14;99889.78;;;24.28;57.17
14882;BME280;7533;51.278;12.588;2024-03-08T18:11:30;99886.69;;;24.53;56.40
14882;BME280;7533;51.278;12.588;2024-03-08T18:16:37;99876.22;;;24.79;55.24
14882;BME280;7533;51.278;12.588;2024-03-08T18:21:40;99872.84;;;24.97;54.60
14882;BME280;7533;51.278;12.588;2024-03-08T18:26:45;99863.34;;;25.12;54.01
14882;BME280;7533;51.278;12.588;2024-03-08T18:31:48;99864.94;;;25.24;53.57
14882;BME280;7533;51.278;12.588;2024-03-08T18:36:52;99860.69;;;25.31;53.56
14882;BME280;7533;51.278;12.588;2024-03-08T18:41:57;99864.22;;;25.42;53.21
14882;BME280;7533;51.278;12.588;2024-03-08T18:47:00;99861.84;;;25.48;52.67
14882;BME280;7533;51.278;12.588;2024-03-08T18:52:03;99864.38;;;25.50;52.46
14882;BME280;7533;51.278;12.588;2024-03-08T18:57:09;99855.09;;;25.62;52.27
14882;BME280;7533;51.278;12.588;2024-03-08T19:02:11;99855.38;;;25.69;52.24
14882;BME280;7533;51.278;12.588;2024-03-08T19:07:18;99848.69;;;25.73;52.03
14882;BME280;7533;51.278;12.588;2024-03-08T19:12:25;99848.97;;;25.79;51.55
14882;BME280;7533;51.278;12.588;2024-03-08T19:17:56;99846.84;;;25.83;51.31
14882;BME280;7533;51.278;12.588;2024-03-08T19:23:11;99836.97;;;25.92;51.26
14882;BME280;7533;51.278;12.588;2024-03-08T19:28:43;99832.81;;;25.97;51.13
14882;BME280;7533;51.278;12.588;2024-03-08T19:34:08;99835.81;;;26.04;50.59
14882;BME280;7533;51.278;12.588;2024-03-08T19:39:38;99825.50;;;26.07;50.81
14882;BME280;7533;51.278;12.588;2024-03-08T19:44:56;99816.84;;;25.94;50.41
14882;BME280;7533;51.278;12.588;2024-03-08T19:50:26;99807.97;;;26.02;49.86
14882;BME280;7533;51.278;12.588;2024-03-08T19:55:49;99821.84;;;25.89;50.07
14882;BME280;7533;51.278;12.588;2024-03-08T20:01:21;99800.03;;;25.81;50.16
14882;BME280;7533;51.278;12.588;2024-03-08T20:06:38;99801.88;;;25.80;50.09
14882;BME280;7533;51.278;12.588;2024-03-08T20:12:08;99801.88;;;25.80;49.81
14882;BME280;7533;51.278;12.588;2024-03-08T20:17:28;99806.34;;;25.81;50.14
14882;BME280;7533;51.278;12.588;2024-03-08T20:22:57;99813.16;;;25.85;49.53
14882;BME280;7533;51.278;12.588;2024-03-08T20:28:15;99804.91;;;25.87;49.90
14882;BME280;7533;51.278;12.588;2024-03-08T20:33:47;99802.72;;;25.91;49.65
14882;BME280;7533;51.278;12.588;2024-03-08T20:39:04;99801.88;;;25.90;49.35
14882;BME280;7533;51.278;12.588;2024-03-08T20:44:36;99799.50;;;25.77;49.79
14882;BME280;7533;51.278;12.588;2024-03-08T20:49:54;99805.25;;;26.02;48.96
14882;BME280;7533;51.278;12.588;2024-03-08T20:55:26;99809.00;;;25.91;49.50
14882;BME280;7533;51.278;12.588;2024-03-08T21:00:42;99790.84;;;26.01;49.01
14882;BME280;7533;51.278;12.588;2024-03-08T21:06:17;99780.13;;;26.09;48.92
14882;BME280;7533;51.278;12.588;2024-03-08T21:11:35;99775.41;;;26.11;49.13
14882;BME280;7533;51.278;12.588;2024-03-08T21:17:06;99769.94;;;26.21;49.15
14882;BME280;7533;51.278;12.588;2024-03-08T21:22:23;99765.22;;;26.23;49.05
14882;BME280;7533;51.278;12.588;2024-03-08T21:27:53;99764.03;;;26.26;48.97
14882;BME280;7533;51.278;12.588;2024-03-08T21:33:09;99755.81;;;26.18;49.28
14882;BME280;7533;51.278;12.588;2024-03-08T21:38:40;99744.31;;;26.33;48.99
14882;BME280;7533;51.278;12.588;2024-03-08T21:43:56;99746.91;;;26.25;49.52
14882;BME280;7533;51.278;12.588;2024-03-08T21:49:26;99741.72;;;26.42;49.51
14882;BME280;7533;51.278;12.588;2024-03-08T21:54:43;99733.41;;;26.43;49.48
14882;BME280;7533;51.278;12.588;2024-03-08T22:00:13;99732.13;;;26.47;49.62
14882;BME280;7533;51.278;12.588;2024-03-08T22:05:32;99722.97;;;26.48;49.72
14882;BME280;7533;51.278;12.588;2024-03-08T22:11:04;99723.44;;;26.44;49.91
14882;BME280;7533;51.278;12.588;2024-03-08T22:16:21;99716.28;;;26.43;49.82
14882;BME280;7533;51.278;12.588;2024-03-08T22:21:55;99712.84;;;26.41;50.11
14882;BME280;7533;51.278;12.588;2024-03-08T22:27:26;99705.31;;;26.34;49.98
14882;BME280;7533;51.278;12.588;2024-03-08T22:32:49;99703.16;;;26.38;50.27
14882;BME280;7533;51.278;12.588;2024-03-08T22:38:20;99710.28;;;26.39;50.18
14882;BME280;7533;51.278;12.588;2024-03-08T22:43:38;99714.59;;;26.42;50.14
14882;BME280;7533;51.278;12.588;2024-03-08T22:49:08;99694.88;;;26.40;50.33
14882;BME280;7533;51.278;12.588;2024-03-08T22:54:24;99697.75;;;26.38;50.29
14882;BME280;7533;51.278;12.588;2024-03-08T22:59:55;99690.56;;;26.19;50.93
14882;BME280;7533;51.278;12.588;2024-03-08T23:05:11;99689.03;;;26.34;50.35
14882;BME280;7533;51.278;12.588;2024-03-08T23:10:41;99682.13;;;26.22;51.08
14882;BME280;7533;51.278;12.588;2024-03-08T23:15:58;99672.06;;;26.32;51.06
14882;BME280;7533;51.278;12.588;2024-03-08T23:21:29;99671.75;;;26.35;50.70
14882;BME280;7533;51.278;12.588;2024-03-08T23:26:59;99665.75;;;26.32;51.25
14882;BME280;7533;51.278;12.588;2024-03-08T23:32:16;99658.34;;;26.34;51.32
14882;BME280;7533;51.278;12.588;2024-03-08T23:37:46;99659.03;;;26.36;51.25
14882;BME280;7533;51.278;12.588;2024-03-08T23:43:04;99660.06;;;26.35;51.06
14882;BME280;7533;51.278;12.588;2024-03-08T23:48:35;99656.03;;;26.39;51.15
14882;BME280;7533;51.278;12.588;2024-03-08T23:53:52;99652.19;;;26.42;51.40
14882;BME280;7533;51.278;12.588;2024-03-08T23:59:22;99649.00;;;26.46;51.20
